sensor_id;sensor_type;location;lat;lon;timestamp;pressure;altitude;pressure_sealevel;temperature;humidity
84020;BME280;74102;49.084;13.694;2024-02-21T00:01:34;94108.72;;;4.60;71.36
84020;BME280;74102;49.084;13.694;2024-02-21T00:03:59;94107.91;;;4.60;71.02
84020;BME280;74102;49.084;13.694;2024-02-21T00:06:25;94119.94;;;4.61;71.19
84020;BME280;74102;49.084;13.694;2024-02-21T00:08:51;94106.16;;;4.60;71.61
84020;BME280;74102;49.084;13.694;2024-02-21T00:11:16;94105.22;;;4.61;71.05
84020;BME280;74102;49.084;13.694;2024-02-21T00:13:42;94107.66;;;4.63;71.61
84020;BME280;74102;49.084;13.694;2024-02-21T00:16:07;94100.84;;;4.62;70.93
84020;BME280;74102;49.084;13.694;2024-02-21T00:18:32;94103.69;;;4.59;71.20
84020;BME280;74102;49.084;13.694;2024-02-21T00:20:58;94102.97;;;4.57;71.86
84020;BME280;74102;49.084;13.694;2024-02-21T00:23:23;94097.78;;;4.57;71.69
84020;BME280;74102;49.084;13.694;2024-02-21T00:25:48;94096.38;;;4.53;71.28
84020;BME280;74102;49.084;13.694;2024-02-21T00:28:14;94090.38;;;4.52;71.81
84020;BME280;74102;49.084;13.694;2024-02-21T00:30:39;94088.97;;;4.48;72.12
84020;BME280;74102;49.084;13.694;2024-02-21T00:33:04;94090.84;;;4.46;71.85
84020;BME280;74102;49.084;13.694;2024-02-21T00:35:30;94085.88;;;4.43;72.09
84020;BME280;74102;49.084;13.694;2024-02-21T00:37:55;94074.00;;;4.41;72.13
84020;BME280;74102;49.084;13.694;2024-02-21T00:40:22;94086.25;;;4.39;71.80
84020;BME280;74102;49.084;13.694;2024-02-21T00:42:48;94084.97;;;4.33;72.22
84020;BME280;74102;49.084;13.694;2024-02-21T00:45:13;94092.13;;;4.30;72.16
84020;BME280;74102;49.084;13.694;2024-02-21T00:47:39;94092.13;;;4.30;72.62
84020;BME280;74102;49.084;13.694;2024-02-21T00:50:05;94097.31;;;4.30;72.22
84020;BME280;74102;49.084;13.694;2024-02-21T00:52:32;94094.72;;;4.30;72.59
84020;BME280;74102;49.084;13.694;2024-02-21T00:54:57;94087.88;;;4.29;72.30
84020;BME280;74102;49.084;13.694;2024-02-21T00:57:22;94083.88;;;4.24;71.89
84020;BME280;74102;49.084;13.694;2024-02-21T00:59:48;94075.19;;;4.25;72.35
84020;BME280;74102;49.084;13.694;2024-02-21T01:02:13;94072.59;;;4.25;73.07
84020;BME280;74102;49.084;13.694;2024-02-21T01:04:39;94055.16;;;4.28;72.54
84020;BME280;74102;49.084;13.694;2024-02-21T01:07:04;94063.66;;;4.30;72.43
84020;BME280;74102;49.084;13.694;2024-02-21T01:09:29;94054.94;;;4.31;72.33
84020;BME280;74102;49.084;13.694;2024-02-21T01:11:55;94055.75;;;4.31;73.26
84020;BME280;74102;49.084;13.694;2024-02-21T01:14:20;94049.06;;;4.29;72.64
84020;BME280;74102;49.084;13.694;2024-02-21T01:16:45;94040.59;;;4.27;72.93
84020;BME280;74102;49.084;13.694;2024-02-21T01:19:11;94041.53;;;4.25;72.94
84020;BME280;74102;49.084;13.694;2024-02-21T01:21:36;94040.69;;;4.25;72.84
84020;BME280;74102;49.084;13.694;2024-02-21T01:24:01;94033.75;;;4.25;72.26
84020;BME280;74102;49.084;13.694;2024-02-21T01:26:27;94038.81;;;4.27;72.31
84020;BME280;74102;49.084;13.694;2024-02-21T01:28:52;94030.09;;;4.28;72.37
84020;BME280;74102;49.084;13.694;2024-02-21T01:31:18;94029.88;;;4.31;72.05
84020;BME280;74102;49.084;13.694;2024-02-21T01:33:43;94020.34;;;4.32;72.45
84020;BME280;74102;49.084;13.694;2024-02-21T01:36:08;94016.81;;;4.33;72.90
84020;BME280;74102;49.084;13.694;2024-02-21T01:38:34;94011.63;;;4.33;72.34
84020;BME280;74102;49.084;13.694;2024-02-21T01:41:00;94004.81;;;4.32;73.27
84020;BME280;74102;49.084;13.694;2024-02-21T01:43:25;93999.88;;;4.29;72.63
84020;BME280;74102;49.084;13.694;2024-02-21T01:45:55;94004.09;;;4.30;72.40
84020;BME280;74102;49.084;13.694;2024-02-21T01:48:24;93998.78;;;4.31;72.88
84020;BME280;74102;49.084;13.694;2024-02-21T01:50:50;93992.78;;;4.31;73.09
84020;BME280;74102;49.084;13.694;2024-02-21T01:53:20;93993.84;;;4.28;72.64
84020;BME280;74102;49.084;13.694;2024-02-21T01:55:47;93987.16;;;4.25;72.41
84020;BME280;74102;49.084;13.694;2024-02-21T01:58:16;93981.84;;;4.27;72.74
84020;BME280;74102;49.084;13.694;2024-02-21T02:00:42;93977.72;;;4.24;72.37
84020;BME280;74102;49.084;13.694;2024-02-21T02:03:11;93977.72;;;4.24;72.21
84020;BME280;74102;49.084;13.694;2024-02-21T02:05:47;93975.16;;;4.24;72.65
84020;BME280;74102;49.084;13.694;2024-02-21T02:08:18;93975.03;;;4.26;72.35
84020;BME280;74102;49.084;13.694;2024-02-21T02:10:44;93976.91;;;4.24;72.64
84020;BME280;74102;49.084;13.694;2024-02-21T02:13:10;93972.56;;;4.24;72.20
84020;BME280;74102;49.084;13.694;2024-02-21T02:15:43;93981.28;;;4.23;72.57
84020;BME280;74102;49.084;13.694;2024-02-21T02:18:10;93972.56;;;4.24;72.80
84020;BME280;74102;49.084;13.694;2024-02-21T02:20:36;93968.22;;;4.25;72.39
84020;BME280;74102;49.084;13.694;2024-02-21T02:23:10;93972.94;;;4.20;72.67
84020;BME280;74102;49.084;13.694;2024-02-21T02:25:36;93970.69;;;4.15;72.34
84020;BME280;74102;49.084;13.694;2024-02-21T02:28:03;93961.50;;;4.11;72.71
84020;BME280;74102;49.084;13.694;2024-02-21T02:30:35;93958.22;;;4.09;72.50
84020;BME280;74102;49.084;13.694;2024-02-21T02:33:02;93963.63;;;4.06;71.69
84020;BME280;74102;49.084;13.694;2024-02-21T02:35:27;93961.75;;;4.08;72.10
84020;BME280;74102;49.084;13.694;2024-02-21T02:37:53;93960.34;;;4.04;71.87
84020;BME280;74102;49.084;13.694;2024-02-21T02:40:18;93951.88;;;4.02;72.15
84020;BME280;74102;49.084;13.694;2024-02-21T02:42:44;93957.50;;;3.96;72.42
84020;BME280;74102;49.084;13.694;2024-02-21T02:45:09;93947.41;;;3.93;71.62
84020;BME280;74102;49.084;13.694;2024-02-21T02:47:35;93940.34;;;3.95;72.18
84020;BME280;74102;49.084;13.694;2024-02-21T02:50:01;93938.94;;;3.91;72.09
84020;BME280;74102;49.084;13.694;2024-02-21T02:52:26;93934.00;;;3.88;72.22
84020;BME280;74102;49.084;13.694;2024-02-21T02:54:52;93918.50;;;3.88;72.13
84020;BME280;74102;49.084;13.694;2024-02-21T02:57:20;93932.13;;;3.90;71.91
84020;BME280;74102;49.084;13.694;2024-02-21T02:59:49;93927.19;;;3.87;72.19
84020;BME280;74102;49.084;13.694;2024-02-21T03:02:15;93925.28;;;3.89;72.53
84020;BME280;74102;49.084;13.694;2024-02-21T03:04:40;93925.28;;;3.89;73.32
84020;BME280;74102;49.084;13.694;2024-02-21T03:07:06;93918.50;;;3.88;72.72
84020;BME280;74102;49.084;13.694;2024-02-21T03:09:31;93914.94;;;3.89;72.59
84020;BME280;74102;49.084;13.694;2024-02-21T03:11:57;93916.59;;;3.90;72.65
84020;BME280;74102;49.084;13.694;2024-02-21T03:14:27;93918.81;;;3.84;72.25
84020;BME280;74102;49.084;13.694;2024-02-21T03:16:53;93902.84;;;3.79;71.78
84020;BME280;74102;49.084;13.694;2024-02-21T03:19:18;93908.59;;;3.82;71.78
84020;BME280;74102;49.084;13.694;2024-02-21T03:21:43;93905.78;;;3.85;71.51
84020;BME280;74102;49.084;13.694;2024-02-21T03:24:09;93918.50;;;3.88;71.53
84020;BME280;74102;49.084;13.694;2024-02-21T03:26:34;93910.00;;;3.86;71.16
84020;BME280;74102;49.084;13.694;2024-02-21T03:28:59;93901.31;;;3.87;71.21
84020;BME280;74102;49.084;13.694;2024-02-21T03:31:25;93910.00;;;3.86;71.69
84020;BME280;74102;49.084;13.694;2024-02-21T03:33:50;93905.91;;;3.84;71.57
84020;BME280;74102;49.084;13.694;2024-02-21T03:36:15;93913.19;;;3.79;71.60
84020;BME280;74102;49.084;13.694;2024-02-21T03:38:41;93914.00;;;3.79;71.69
84020;BME280;74102;49.084;13.694;2024-02-21T03:41:07;93906.25;;;3.79;72.10
84020;BME280;74102;49.084;13.694;2024-02-21T03:43:32;93905.31;;;3.80;72.06
84020;BME280;74102;49.084;13.694;2024-02-21T03:45:57;93910.47;;;3.80;72.29
84020;BME280;74102;49.084;13.694;2024-02-21T03:48:23;93907.66;;;3.72;73.28
84020;BME280;74102;49.084;13.694;2024-02-21T03:50:48;93905.31;;;3.80;72.87
84020;BME280;74102;49.084;13.694;2024-02-21T03:53:14;93904.38;;;3.81;72.80
84020;BME280;74102;49.084;13.694;2024-02-21T03:55:39;93897.53;;;3.80;72.63
84020;BME280;74102;49.084;13.694;2024-02-21T03:58:04;93902.25;;;3.75;73.49
84020;BME280;74102;49.084;13.694;2024-02-21T04:00:30;93899.44;;;3.78;73.18
84020;BME280;74102;49.084;13.694;2024-02-21T04:02:55;93901.88;;;3.80;73.01
84020;BME280;74102;49.084;13.694;2024-02-21T04:05:21;93895.66;;;3.82;73.39
84020;BME280;74102;49.084;13.694;2024-02-21T04:07:46;93898.97;;;3.84;73.02
84020;BME280;74102;49.084;13.694;2024-02-21T04:10:12;93894.47;;;3.86;73.32
84020;BME280;74102;49.084;13.694;2024-02-21T04:12:37;93900.47;;;3.87;73.50
84020;BME280;74102;49.084;13.694;2024-02-21T04:15:04;93888.81;;;3.92;72.99
84020;BME280;74102;49.084;13.694;2024-02-21T04:17:29;93886.97;;;3.94;72.95
84020;BME280;74102;49.084;13.694;2024-02-21T04:20:02;93884.00;;;3.99;73.35
84020;BME280;74102;49.084;13.694;2024-02-21T04:22:31;93872.13;;;3.96;72.49
84020;BME280;74102;49.084;13.694;2024-02-21T04:24:56;93880.72;;;3.97;72.50
84020;BME280;74102;49.084;13.694;2024-02-21T04:27:22;93870.03;;;4.01;72.63
84020;BME280;74102;49.084;13.694;2024-02-21T04:29:47;93874.94;;;4.04;72.64
84020;BME280;74102;49.084;13.694;2024-02-21T04:32:13;93861.78;;;4.07;73.02
84020;BME280;74102;49.084;13.694;2024-02-21T04:34:41;93857.28;;;4.09;72.69
84020;BME280;74102;49.084;13.694;2024-02-21T04:37:06;93861.53;;;4.10;73.25
84020;BME280;74102;49.084;13.694;2024-02-21T04:39:31;93857.19;;;4.11;72.86
84020;BME280;74102;49.084;13.694;2024-02-21T04:41:57;93860.56;;;4.11;72.71
84020;BME280;74102;49.084;13.694;2024-02-21T04:44:22;93862.91;;;4.14;72.62
84020;BME280;74102;49.084;13.694;2024-02-21T04:46:47;93862.13;;;4.14;72.79
84020;BME280;74102;49.084;13.694;2024-02-21T04:49:13;93868.81;;;4.16;72.84
84020;BME280;74102;49.084;13.694;2024-02-21T04:51:40;93854.78;;;4.19;72.34
84020;BME280;74102;49.084;13.694;2024-02-21T04:54:06;93854.53;;;4.22;72.68
84020;BME280;74102;49.084;13.694;2024-02-21T04:56:32;93859.97;;;4.19;72.26
84020;BME280;74102;49.084;13.694;2024-02-21T04:58:57;93859.88;;;4.20;72.16
84020;BME280;74102;49.084;13.694;2024-02-21T05:01:22;93858.91;;;4.21;72.60
84020;BME280;74102;49.084;13.694;2024-02-21T05:03:48;93866.56;;;4.23;72.85
84020;BME280;74102;49.084;13.694;2024-02-21T05:06:13;93858.41;;;4.28;73.19
84020;BME280;74102;49.084;13.694;2024-02-21T05:08:40;93854.88;;;4.29;72.59
84020;BME280;74102;49.084;13.694;2024-02-21T05:11:05;93851.09;;;4.33;72.46
84020;BME280;74102;49.084;13.694;2024-02-21T05:13:30;93838.03;;;4.34;72.56
84020;BME280;74102;49.084;13.694;2024-02-21T05:15:56;93839.78;;;4.34;72.70
84020;BME280;74102;49.084;13.694;2024-02-21T05:18:21;93841.59;;;4.33;72.83
84020;BME280;74102;49.084;13.694;2024-02-21T05:20:46;93831.66;;;4.38;72.58
84020;BME280;74102;49.084;13.694;2024-02-21T05:23:12;93834.00;;;4.41;72.77
84020;BME280;74102;49.084;13.694;2024-02-21T05:25:37;93828.72;;;4.43;72.45
84020;BME280;74102;49.084;13.694;2024-02-21T05:28:03;93829.66;;;4.42;72.85
84020;BME280;74102;49.084;13.694;2024-02-21T05:30:30;93827.75;;;4.44;72.76
84020;BME280;74102;49.084;13.694;2024-02-21T05:32:56;93834.59;;;4.45;72.98
84020;BME280;74102;49.084;13.694;2024-02-21T05:35:26;93832.34;;;4.40;73.31
84020;BME280;74102;49.084;13.694;2024-02-21T05:37:51;93828.97;;;4.40;73.57
84020;BME280;74102;49.084;13.694;2024-02-21T05:40:18;93825.41;;;4.41;73.33
84020;BME280;74102;49.084;13.694;2024-02-21T05:42:43;93822.13;;;4.39;73.34
84020;BME280;74102;49.084;13.694;2024-02-21T05:45:09;93817.91;;;4.38;73.18
84020;BME280;74102;49.084;13.694;2024-02-21T05:47:34;93818.38;;;4.32;73.37
84020;BME280;74102;49.084;13.694;2024-02-21T05:49:59;93812.97;;;4.35;72.95
84020;BME280;74102;49.084;13.694;2024-02-21T05:52:25;93809.69;;;4.33;72.89
84020;BME280;74102;49.084;13.694;2024-02-21T05:54:50;93816.88;;;4.29;73.15
84020;BME280;74102;49.084;13.694;2024-02-21T05:57:19;93811.81;;;4.28;73.15
84020;BME280;74102;49.084;13.694;2024-02-21T05:59:45;93820.53;;;4.27;73.14
84020;BME280;74102;49.084;13.694;2024-02-21T06:02:10;93816.72;;;4.31;73.26
84020;BME280;74102;49.084;13.694;2024-02-21T06:04:35;93813.03;;;4.23;73.08
84020;BME280;74102;49.084;13.694;2024-02-21T06:07:01;93825.72;;;4.27;73.21
84020;BME280;74102;49.084;13.694;2024-02-21T06:09:27;93828.16;;;4.28;73.43
84020;BME280;74102;49.084;13.694;2024-02-21T06:11:53;93836.41;;;4.33;72.67
84020;BME280;74102;49.084;13.694;2024-02-21T06:14:19;93835.34;;;4.36;73.08
84020;BME280;74102;49.084;13.694;2024-02-21T06:16:45;93820.63;;;4.36;73.33
84020;BME280;74102;49.084;13.694;2024-02-21T06:19:10;93825.66;;;4.38;73.49
84020;BME280;74102;49.084;13.694;2024-02-21T06:21:36;93824.25;;;4.34;73.42
84020;BME280;74102;49.084;13.694;2024-02-21T06:24:01;93820.63;;;4.36;73.28
84020;BME280;74102;49.084;13.694;2024-02-21T06:26:27;93812.72;;;4.38;73.09
84020;BME280;74102;49.084;13.694;2024-02-21T06:28:52;93822.56;;;4.44;72.80
84020;BME280;74102;49.084;13.694;2024-02-21T06:31:17;93805.16;;;4.46;73.04
84020;BME280;74102;49.084;13.694;2024-02-21T06:33:43;93809.84;;;4.52;72.93
84020;BME280;74102;49.084;13.694;2024-02-21T06:36:08;93808.44;;;4.48;71.74
84020;BME280;74102;49.084;13.694;2024-02-21T06:38:33;93801.09;;;4.53;71.86
84020;BME280;74102;49.084;13.694;2024-02-21T06:40:59;93802.50;;;4.57;71.48
84020;BME280;74102;49.084;13.694;2024-02-21T06:43:26;93799.56;;;4.61;71.61
84020;BME280;74102;49.084;13.694;2024-02-21T06:45:51;93796.81;;;4.63;71.59
84020;BME280;74102;49.084;13.694;2024-02-21T06:48:17;93804.47;;;4.64;71.41
84020;BME280;74102;49.084;13.694;2024-02-21T06:50:43;93803.53;;;4.65;71.32
84020;BME280;74102;49.084;13.694;2024-02-21T06:53:09;93798.91;;;4.69;71.31
84020;BME280;74102;49.084;13.694;2024-02-21T06:55:35;93811.38;;;4.75;71.40
84020;BME280;74102;49.084;13.694;2024-02-21T06:58:00;93815.72;;;4.74;71.21
84020;BME280;74102;49.084;13.694;2024-02-21T07:00:28;93814.91;;;4.74;70.75
84020;BME280;74102;49.084;13.694;2024-02-21T07:02:53;93820.66;;;4.77;70.91
84020;BME280;74102;49.084;13.694;2024-02-21T07:05:19;93811.44;;;4.85;71.13
84020;BME280;74102;49.084;13.694;2024-02-21T07:07:44;93825.66;;;4.90;70.96
84020;BME280;74102;49.084;13.694;2024-02-21T07:10:09;93830.34;;;4.96;70.49
84020;BME280;74102;49.084;13.694;2024-02-21T07:12:36;93830.66;;;5.03;70.22
84020;BME280;74102;49.084;13.694;2024-02-21T07:15:04;93835.56;;;5.06;70.68
84020;BME280;74102;49.084;13.694;2024-02-21T07:17:29;93826.97;;;5.05;71.39
84020;BME280;74102;49.084;13.694;2024-02-21T07:19:55;93826.97;;;5.05;70.69
84020;BME280;74102;49.084;13.694;2024-02-21T07:22:22;93821.78;;;5.05;71.18
84020;BME280;74102;49.084;13.694;2024-02-21T07:24:47;93821.94;;;5.04;71.36
84020;BME280;74102;49.084;13.694;2024-02-21T07:27:15;93825.47;;;5.03;71.45
84020;BME280;74102;49.084;13.694;2024-02-21T07:29:40;93821.09;;;5.03;71.25
84020;BME280;74102;49.084;13.694;2024-02-21T07:32:06;93813.50;;;5.11;71.36
84020;BME280;74102;49.084;13.694;2024-02-21T07:34:31;93802.88;;;5.14;71.35
84020;BME280;74102;49.084;13.694;2024-02-21T07:36:57;93803.75;;;5.24;70.98
84020;BME280;74102;49.084;13.694;2024-02-21T07:39:22;93814.56;;;5.29;70.66
84020;BME280;74102;49.084;13.694;2024-02-21T07:41:48;93806.53;;;5.32;70.67
84020;BME280;74102;49.084;13.694;2024-02-21T07:44:14;93811.19;;;5.39;70.21
84020;BME280;74102;49.084;13.694;2024-02-21T07:46:40;93811.63;;;5.44;70.28
84020;BME280;74102;49.084;13.694;2024-02-21T07:49:05;93800.03;;;5.48;69.48
84020;BME280;74102;49.084;13.694;2024-02-21T07:51:31;93802.38;;;5.51;69.59
84020;BME280;74102;49.084;13.694;2024-02-21T07:53:56;93797.59;;;5.56;69.94
84020;BME280;74102;49.084;13.694;2024-02-21T07:56:21;93792.97;;;5.59;69.83
84020;BME280;74102;49.084;13.694;2024-02-21T07:58:47;93797.66;;;5.75;70.40
84020;BME280;74102;49.084;13.694;2024-02-21T08:01:18;93805.13;;;5.89;70.00
84020;BME280;74102;49.084;13.694;2024-02-21T08:03:44;93801.31;;;5.93;68.91
84020;BME280;74102;49.084;13.694;2024-02-21T08:06:12;93782.88;;;5.96;68.84
84020;BME280;74102;49.084;13.694;2024-02-21T08:08:37;93792.81;;;6.01;68.94
84020;BME280;74102;49.084;13.694;2024-02-21T08:11:03;93787.09;;;5.97;68.55
84020;BME280;74102;49.084;13.694;2024-02-21T08:13:28;93795.00;;;5.86;68.39
84020;BME280;74102;49.084;13.694;2024-02-21T08:15:54;93794.06;;;5.87;68.92
84020;BME280;74102;49.084;13.694;2024-02-21T08:18:19;93791.31;;;5.89;68.76
84020;BME280;74102;49.084;13.694;2024-02-21T08:20:45;93787.34;;;5.94;68.45
84020;BME280;74102;49.084;13.694;2024-02-21T08:23:10;93784.75;;;5.94;68.47
84020;BME280;74102;49.084;13.694;2024-02-21T08:25:36;93785.72;;;5.93;68.98
84020;BME280;74102;49.084;13.694;2024-02-21T08:28:01;93788.06;;;5.96;69.20
84020;BME280;74102;49.084;13.694;2024-02-21T08:30:27;93772.88;;;6.01;68.52
84020;BME280;74102;49.084;13.694;2024-02-21T08:32:53;93760.63;;;6.13;68.40
84020;BME280;74102;49.084;13.694;2024-02-21T08:35:19;93751.72;;;6.25;67.90
84020;BME280;74102;49.084;13.694;2024-02-21T08:37:47;93745.84;;;6.32;68.34
84020;BME280;74102;49.084;13.694;2024-02-21T08:40:13;93739.03;;;6.41;68.14
84020;BME280;74102;49.084;13.694;2024-02-21T08:42:39;93743.00;;;6.45;68.67
84020;BME280;74102;49.084;13.694;2024-02-21T08:45:05;93736.41;;;6.51;67.64
84020;BME280;74102;49.084;13.694;2024-02-21T08:47:30;93733.00;;;6.50;66.48
84020;BME280;74102;49.084;13.694;2024-02-21T08:49:55;93745.03;;;6.51;66.80
84020;BME280;74102;49.084;13.694;2024-02-21T08:52:21;93749.13;;;6.54;66.69
84020;BME280;74102;49.084;13.694;2024-02-21T08:54:46;93742.00;;;6.56;65.67
84020;BME280;74102;49.084;13.694;2024-02-21T08:57:11;93749.69;;;6.48;64.22
84020;BME280;74102;49.084;13.694;2024-02-21T08:59:39;93756.78;;;6.46;64.62
84020;BME280;74102;49.084;13.694;2024-02-21T09:02:05;93767.03;;;6.38;65.71
84020;BME280;74102;49.084;13.694;2024-02-21T09:04:32;93777.84;;;6.33;65.31
84020;BME280;74102;49.084;13.694;2024-02-21T09:06:57;93775.38;;;6.22;64.29
84020;BME280;74102;49.084;13.694;2024-02-21T09:09:23;93778.78;;;6.13;65.24
84020;BME280;74102;49.084;13.694;2024-02-21T09:11:48;93773.16;;;5.98;65.54
84020;BME280;74102;49.084;13.694;2024-02-21T09:14:13;93773.16;;;5.98;65.58
84020;BME280;74102;49.084;13.694;2024-02-21T09:16:39;93776.97;;;5.94;65.54
84020;BME280;74102;49.084;13.694;2024-02-21T09:19:04;93761.34;;;5.84;66.08
84020;BME280;74102;49.084;13.694;2024-02-21T09:21:30;93762.09;;;5.87;66.32
84020;BME280;74102;49.084;13.694;2024-02-21T09:23:55;93752.66;;;5.95;66.04
84020;BME280;74102;49.084;13.694;2024-02-21T09:26:20;93749.13;;;5.96;66.12
84020;BME280;74102;49.084;13.694;2024-02-21T09:28:46;93751.00;;;5.94;65.83
84020;BME280;74102;49.084;13.694;2024-02-21T09:31:11;93747.47;;;5.95;65.86
84020;BME280;74102;49.084;13.694;2024-02-21T09:33:37;93750.50;;;6.00;65.53
84020;BME280;74102;49.084;13.694;2024-02-21T09:36:02;93746.09;;;6.10;64.52
84020;BME280;74102;49.084;13.694;2024-02-21T09:38:31;93749.53;;;6.20;65.02
84020;BME280;74102;49.084;13.694;2024-02-21T09:40:59;93752.97;;;6.30;64.34
84020;BME280;74102;49.084;13.694;2024-02-21T09:43:29;93744.50;;;6.38;64.55
84020;BME280;74102;49.084;13.694;2024-02-21T09:45:55;93746.94;;;6.40;64.20
84020;BME280;74102;49.084;13.694;2024-02-21T09:50:54;93716.84;;;6.47;63.70
84020;BME280;74102;49.084;13.694;2024-02-21T09:53:24;93714.50;;;6.63;64.50
84020;BME280;74102;49.084;13.694;2024-02-21T09:55:50;93708.31;;;6.83;63.70
84020;BME280;74102;49.084;13.694;2024-02-21T09:58:16;93694.56;;;7.00;62.18
84020;BME280;74102;49.084;13.694;2024-02-21T10:00:41;93696.13;;;7.20;63.27
84020;BME280;74102;49.084;13.694;2024-02-21T10:03:07;93691.53;;;7.41;62.15
84020;BME280;74102;49.084;13.694;2024-02-21T10:05:36;93684.94;;;7.47;59.82
84020;BME280;74102;49.084;13.694;2024-02-21T10:08:02;93675.72;;;7.53;60.23
84020;BME280;74102;49.084;13.694;2024-02-21T10:10:28;93674.84;;;7.62;61.84
84020;BME280;74102;49.084;13.694;2024-02-21T10:12:55;93679.75;;;7.65;61.31
84020;BME280;74102;49.084;13.694;2024-02-21T10:15:21;93684.44;;;7.61;59.34
84020;BME280;74102;49.084;13.694;2024-02-21T10:17:58;93687.47;;;7.57;60.01
84020;BME280;74102;49.084;13.694;2024-02-21T10:20:23;93687.78;;;7.54;60.16
84020;BME280;74102;49.084;13.694;2024-02-21T10:22:49;93689.69;;;7.52;60.54
84020;BME280;74102;49.084;13.694;2024-02-21T10:25:25;93687.09;;;7.52;59.04
84020;BME280;74102;49.084;13.694;2024-02-21T10:27:50;93670.75;;;7.59;56.62
84020;BME280;74102;49.084;13.694;2024-02-21T10:30:16;93673.97;;;7.71;58.77
84020;BME280;74102;49.084;13.694;2024-02-21T10:32:49;93675.53;;;7.81;58.83
84020;BME280;74102;49.084;13.694;2024-02-21T10:35:25;93669.97;;;7.94;59.13
84020;BME280;74102;49.084;13.694;2024-02-21T10:37:50;93679.50;;;8.03;58.58
84020;BME280;74102;49.084;13.694;2024-02-21T10:40:21;93676.00;;;8.12;58.20
84020;BME280;74102;49.084;13.694;2024-02-21T10:42:48;93676.75;;;8.05;56.72
84020;BME280;74102;49.084;13.694;2024-02-21T10:45:16;93677.63;;;8.13;57.51
84020;BME280;74102;49.084;13.694;2024-02-21T10:47:47;93690.06;;;8.19;58.51
84020;BME280;74102;49.084;13.694;2024-02-21T10:50:17;93682.94;;;8.21;56.67
84020;BME280;74102;49.084;13.694;2024-02-21T10:53:19;93690.28;;;8.26;56.39
84020;BME280;74102;49.084;13.694;2024-02-21T10:55:56;93699.88;;;8.25;55.52
84020;BME280;74102;49.084;13.694;2024-02-21T10:58:23;93696.31;;;8.26;57.44
84020;BME280;74102;49.084;13.694;2024-02-21T11:00:51;93682.88;;;8.31;58.45
84020;BME280;74102;49.084;13.694;2024-02-21T11:03:17;93686.34;;;8.39;57.09
84020;BME280;74102;49.084;13.694;2024-02-21T11:05:43;93688.00;;;8.40;57.26
84020;BME280;74102;49.084;13.694;2024-02-21T11:08:10;93680.25;;;8.48;56.78
84020;BME280;74102;49.084;13.694;2024-02-21T11:10:36;93689.41;;;8.53;56.41
84020;BME280;74102;49.084;13.694;2024-02-21T11:15:32;93674.28;;;8.38;55.69
84020;BME280;74102;49.084;13.694;2024-02-21T11:17:57;93663.56;;;8.41;55.28
84020;BME280;74102;49.084;13.694;2024-02-21T11:20:35;93664.91;;;8.45;55.33
84020;BME280;74102;49.084;13.694;2024-02-21T11:23:01;93666.28;;;8.58;56.25
84020;BME280;74102;49.084;13.694;2024-02-21T11:25:28;93657.38;;;8.60;55.36
84020;BME280;74102;49.084;13.694;2024-02-21T11:28:01;93641.00;;;8.76;55.94
84020;BME280;74102;49.084;13.694;2024-02-21T11:30:29;93652.19;;;8.94;56.25
84020;BME280;74102;49.084;13.694;2024-02-21T11:33:00;93638.84;;;8.97;55.16
84020;BME280;74102;49.084;13.694;2024-02-21T11:35:31;93634.63;;;9.04;55.66
84020;BME280;74102;49.084;13.694;2024-02-21T11:38:07;93627.47;;;9.06;55.48
84020;BME280;74102;49.084;13.694;2024-02-21T11:40:33;93638.84;;;8.97;54.37
84020;BME280;74102;49.084;13.694;2024-02-21T11:42:59;93626.44;;;8.99;54.83
84020;BME280;74102;49.084;13.694;2024-02-21T11:45:25;93624.84;;;8.98;54.54
84020;BME280;74102;49.084;13.694;2024-02-21T11:47:51;93620.63;;;9.05;55.09
84020;BME280;74102;49.084;13.694;2024-02-21T11:50:16;93626.88;;;9.20;55.02
84020;BME280;74102;49.084;13.694;2024-02-21T11:52:42;93603.41;;;9.20;54.21
84020;BME280;74102;49.084;13.694;2024-02-21T11:55:07;93604.75;;;9.32;55.29
84020;BME280;74102;49.084;13.694;2024-02-21T11:57:33;93599.50;;;9.24;53.58
84020;BME280;74102;49.084;13.694;2024-02-21T12:00:11;93592.31;;;9.18;53.42
84020;BME280;74102;49.084;13.694;2024-02-21T12:02:37;93598.50;;;9.17;53.41
84020;BME280;74102;49.084;13.694;2024-02-21T12:05:03;93584.50;;;9.18;53.09
84020;BME280;74102;49.084;13.694;2024-02-21T12:07:30;93577.69;;;9.33;53.17
84020;BME280;74102;49.084;13.694;2024-02-21T12:09:59;93586.16;;;9.35;52.78
84020;BME280;74102;49.084;13.694;2024-02-21T12:12:24;93570.69;;;9.42;52.65
84020;BME280;74102;49.084;13.694;2024-02-21T12:14:56;93568.88;;;9.42;52.24
84020;BME280;74102;49.084;13.694;2024-02-21T12:17:24;93560.09;;;9.43;52.83
84020;BME280;74102;49.084;13.694;2024-02-21T12:19:50;93551.94;;;9.46;53.68
84020;BME280;74102;49.084;13.694;2024-02-21T12:22:18;93549.00;;;9.49;53.83
84020;BME280;74102;49.084;13.694;2024-02-21T12:24:43;93544.09;;;9.54;53.36
84020;BME280;74102;49.084;13.694;2024-02-21T12:27:12;93545.56;;;9.49;54.09
84020;BME280;74102;49.084;13.694;2024-02-21T12:29:38;93524.84;;;9.39;54.12
84020;BME280;74102;49.084;13.694;2024-02-21T12:32:03;93536.88;;;9.32;54.14
84020;BME280;74102;49.084;13.694;2024-02-21T12:34:29;93535.56;;;9.28;54.25
84020;BME280;74102;49.084;13.694;2024-02-21T12:36:58;93530.38;;;9.36;54.26
84020;BME280;74102;49.084;13.694;2024-02-21T12:39:24;93526.00;;;9.53;54.78
84020;BME280;74102;49.084;13.694;2024-02-21T12:41:50;93534.97;;;9.59;53.60
84020;BME280;74102;49.084;13.694;2024-02-21T12:44:15;93518.69;;;9.73;54.15
84020;BME280;74102;49.084;13.694;2024-02-21T12:46:42;93520.31;;;9.82;53.90
84020;BME280;74102;49.084;13.694;2024-02-21T12:49:07;93517.69;;;9.90;53.38
84020;BME280;74102;49.084;13.694;2024-02-21T12:51:33;93512.47;;;9.90;53.31
84020;BME280;74102;49.084;13.694;2024-02-21T12:53:59;93492.69;;;9.95;53.21
84020;BME280;74102;49.084;13.694;2024-02-21T12:56:25;93493.84;;;10.01;53.05
84020;BME280;74102;49.084;13.694;2024-02-21T12:58:56;93494.19;;;9.98;53.34
84020;BME280;74102;49.084;13.694;2024-02-21T13:01:21;93487.81;;;10.00;53.17